sensor_id;sensor_type;location;lat;lon;timestamp;P1;durP1;ratioP1;P2;durP2;ratioP2
3625;SDS011;1827;50.534;8.316;2023-02-11T00:01:50;80.53;;;32.70;;
3625;SDS011;1827;50.534;8.316;2023-02-11T00:04:16;82.40;;;31.83;;
3625;SDS011;1827;50.534;8.316;2023-02-11T00:06:42;81.73;;;33.17;;
3625;SDS011;1827;50.534;8.316;2023-02-11T00:09:08;76.80;;;28.90;;
3625;SDS011;1827;50.534;8.316;2023-02-11T00:11:35;70.43;;;29.17;;
3625;SDS011;1827;50.534;8.316;2023-02-11T00:14:02;83.50;;;34.97;;
3625;SDS011;1827;50.534;8.316;2023-02-11T00:16:29;100.10;;;40.10;;
3625;SDS011;1827;50.534;8.316;2023-02-11T00:18:59;95.73;;;39.70;;
3625;SDS011;1827;50.534;8.316;2023-02-11T00:21:26;92.50;;;37.03;;
3625;SDS011;1827;50.534;8.316;2023-02-11T00:23:52;91.40;;;38.70;;
3625;SDS011;1827;50.534;8.316;2023-02-11T00:26:24;90.43;;;35.70;;
3625;SDS011;1827;50.534;8.316;2023-02-11T00:28:52;91.57;;;37.67;;
3625;SDS011;1827;50.534;8.316;2023-02-11T00:31:19;89.10;;;38.73;;
3625;SDS011;1827;50.534;8.316;2023-02-11T00:33:46;90.83;;;38.07;;
3625;SDS011;1827;50.534;8.316;2023-02-11T00:36:13;98.93;;;40.33;;
3625;SDS011;1827;50.534;8.316;2023-02-11T00:38:44;91.13;;;39.40;;
3625;SDS011;1827;50.534;8.316;2023-02-11T00:41:11;84.93;;;36.80;;
3625;SDS011;1827;50.534;8.316;2023-02-11T00:43:37;89.10;;;37.00;;
3625;SDS011;1827;50.534;8.316;2023-02-11T00:46:03;97.70;;;37.83;;
3625;SDS011;1827;50.534;8.316;2023-02-11T00:48:29;90.23;;;37.63;;
3625;SDS011;1827;50.534;8.316;2023-02-11T00:50:59;86.83;;;36.70;;
3625;SDS011;1827;50.534;8.316;2023-02-11T00:53:25;96.00;;;37.30;;
3625;SDS011;1827;50.534;8.316;2023-02-11T00:55:51;98.30;;;39.53;;
3625;SDS011;1827;50.534;8.316;2023-02-11T00:58:17;95.00;;;39.70;;
3625;SDS011;1827;50.534;8.316;2023-02-11T01:00:43;87.20;;;36.20;;
3625;SDS011;1827;50.534;8.316;2023-02-11T01:03:09;86.20;;;35.40;;
3625;SDS011;1827;50.534;8.316;2023-02-11T01:05:34;86.17;;;35.30;;
3625;SDS011;1827;50.534;8.316;2023-02-11T01:08:01;87.57;;;36.40;;
3625;SDS011;1827;50.534;8.316;2023-02-11T01:10:27;86.70;;;37.20;;
3625;SDS011;1827;50.534;8.316;2023-02-11T01:12:53;90.40;;;38.80;;
3625;SDS011;1827;50.534;8.316;2023-02-11T01:15:19;100.70;;;40.50;;
3625;SDS011;1827;50.534;8.316;2023-02-11T01:17:45;79.33;;;36.37;;
3625;SDS011;1827;50.534;8.316;2023-02-11T01:20:16;87.10;;;37.17;;
3625;SDS011;1827;50.534;8.316;2023-02-11T01:22:47;91.67;;;35.67;;
3625;SDS011;1827;50.534;8.316;2023-02-11T01:25:13;91.87;;;37.70;;
3625;SDS011;1827;50.534;8.316;2023-02-11T01:27:39;90.70;;;36.20;;
3625;SDS011;1827;50.534;8.316;2023-02-11T01:30:06;95.90;;;39.63;;
3625;SDS011;1827;50.534;8.316;2023-02-11T01:32:33;90.37;;;36.53;;
3625;SDS011;1827;50.534;8.316;2023-02-11T01:34:59;82.87;;;35.33;;
3625;SDS011;1827;50.534;8.316;2023-02-11T01:37:25;80.77;;;35.83;;
3625;SDS011;1827;50.534;8.316;2023-02-11T01:39:51;85.33;;;35.47;;
3625;SDS011;1827;50.534;8.316;2023-02-11T01:42:18;85.53;;;35.50;;
3625;SDS011;1827;50.534;8.316;2023-02-11T01:44:47;87.37;;;37.57;;
3625;SDS011;1827;50.534;8.316;2023-02-11T01:47:15;83.57;;;37.30;;
3625;SDS011;1827;50.534;8.316;2023-02-11T01:49:43;85.20;;;37.20;;
3625;SDS011;1827;50.534;8.316;2023-02-11T01:54:38;93.00;;;38.13;;
3625;SDS011;1827;50.534;8.316;2023-02-11T01:57:28;93.23;;;38.73;;
3625;SDS011;1827;50.534;8.316;2023-02-11T02:00:16;80.70;;;36.27;;
3625;SDS011;1827;50.534;8.316;2023-02-11T02:05:44;87.60;;;37.60;;
3625;SDS011;1827;50.534;8.316;2023-02-11T02:08:25;82.07;;;35.57;;
3625;SDS011;1827;50.534;8.316;2023-02-11T02:11:01;81.97;;;37.17;;
3625;SDS011;1827;50.534;8.316;2023-02-11T02:13:29;83.17;;;37.03;;
3625;SDS011;1827;50.534;8.316;2023-02-11T02:16:02;87.00;;;39.67;;
3625;SDS011;1827;50.534;8.316;2023-02-11T02:18:47;88.77;;;37.17;;
3625;SDS011;1827;50.534;8.316;2023-02-11T02:29:36;82.33;;;36.40;;
3625;SDS011;1827;50.534;8.316;2023-02-11T02:35:18;83.70;;;34.63;;
3625;SDS011;1827;50.534;8.316;2023-02-11T02:40:29;86.40;;;37.70;;
3625;SDS011;1827;50.534;8.316;2023-02-11T02:42:59;88.20;;;35.80;;
3625;SDS011;1827;50.534;8.316;2023-02-11T02:45:26;77.20;;;36.07;;
3625;SDS011;1827;50.534;8.316;2023-02-11T02:47:51;77.37;;;35.90;;
3625;SDS011;1827;50.534;8.316;2023-02-11T02:50:19;86.07;;;38.10;;
3625;SDS011;1827;50.534;8.316;2023-02-11T02:52:58;90.37;;;38.20;;
3625;SDS011;1827;50.534;8.316;2023-02-11T02:55:41;86.30;;;37.43;;
3625;SDS011;1827;50.534;8.316;2023-02-11T02:58:46;88.07;;;35.30;;
3625;SDS011;1827;50.534;8.316;2023-02-11T03:01:24;94.33;;;39.20;;
3625;SDS011;1827;50.534;8.316;2023-02-11T03:06:51;90.60;;;38.70;;
3625;SDS011;1827;50.534;8.316;2023-02-11T03:09:25;77.30;;;35.27;;
3625;SDS011;1827;50.534;8.316;2023-02-11T03:12:00;90.50;;;37.50;;
3625;SDS011;1827;50.534;8.316;2023-02-11T03:14:27;80.23;;;36.10;;
3625;SDS011;1827;50.534;8.316;2023-02-11T03:16:54;79.30;;;35.17;;
3625;SDS011;1827;50.534;8.316;2023-02-11T03:19:37;84.07;;;36.57;;
3625;SDS011;1827;50.534;8.316;2023-02-11T03:22:07;88.47;;;35.40;;
3625;SDS011;1827;50.534;8.316;2023-02-11T03:24:52;80.03;;;34.47;;
3625;SDS011;1827;50.534;8.316;2023-02-11T03:27:27;80.07;;;35.60;;
3625;SDS011;1827;50.534;8.316;2023-02-11T03:32:41;77.67;;;34.63;;
3625;SDS011;1827;50.534;8.316;2023-02-11T03:35:15;92.30;;;37.23;;
3625;SDS011;1827;50.534;8.316;2023-02-11T03:37:59;89.30;;;38.63;;
3625;SDS011;1827;50.534;8.316;2023-02-11T03:40:30;85.20;;;37.93;;
3625;SDS011;1827;50.534;8.316;2023-02-11T03:43:02;87.03;;;36.60;;
3625;SDS011;1827;50.534;8.316;2023-02-11T03:45:34;75.27;;;34.03;;
3625;SDS011;1827;50.534;8.316;2023-02-11T03:48:04;83.80;;;35.60;;
3625;SDS011;1827;50.534;8.316;2023-02-11T03:50:35;88.40;;;37.73;;
3625;SDS011;1827;50.534;8.316;2023-02-11T03:53:02;91.97;;;39.77;;
3625;SDS011;1827;50.534;8.316;2023-02-11T03:55:29;85.83;;;35.37;;
3625;SDS011;1827;50.534;8.316;2023-02-11T03:57:59;82.40;;;35.17;;
3625;SDS011;1827;50.534;8.316;2023-02-11T04:00:28;77.63;;;34.50;;
3625;SDS011;1827;50.534;8.316;2023-02-11T04:02:55;79.80;;;35.97;;
3625;SDS011;1827;50.534;8.316;2023-02-11T04:05:20;87.17;;;36.07;;
3625;SDS011;1827;50.534;8.316;2023-02-11T04:07:46;87.47;;;38.90;;
3625;SDS011;1827;50.534;8.316;2023-02-11T04:10:12;90.77;;;35.97;;
3625;SDS011;1827;50.534;8.316;2023-02-11T04:12:38;84.47;;;38.87;;
3625;SDS011;1827;50.534;8.316;2023-02-11T04:15:03;94.60;;;38.10;;
3625;SDS011;1827;50.534;8.316;2023-02-11T04:17:30;90.30;;;37.37;;
3625;SDS011;1827;50.534;8.316;2023-02-11T04:19:55;92.50;;;38.23;;
3625;SDS011;1827;50.534;8.316;2023-02-11T04:22:21;88.53;;;38.03;;
3625;SDS011;1827;50.534;8.316;2023-02-11T04:24:47;98.03;;;41.17;;
3625;SDS011;1827;50.534;8.316;2023-02-11T04:27:12;89.17;;;39.47;;
3625;SDS011;1827;50.534;8.316;2023-02-11T04:29:38;84.20;;;37.73;;
3625;SDS011;1827;50.534;8.316;2023-02-11T04:32:04;95.30;;;38.97;;
3625;SDS011;1827;50.534;8.316;2023-02-11T04:34:30;93.73;;;39.60;;
3625;SDS011;1827;50.534;8.316;2023-02-11T04:36:55;96.00;;;37.63;;
3625;SDS011;1827;50.534;8.316;2023-02-11T04:39:21;90.37;;;38.00;;
3625;SDS011;1827;50.534;8.316;2023-02-11T04:41:47;88.80;;;38.67;;
3625;SDS011;1827;50.534;8.316;2023-02-11T04:44:12;89.23;;;37.30;;
3625;SDS011;1827;50.534;8.316;2023-02-11T04:46:38;86.90;;;37.40;;
3625;SDS011;1827;50.534;8.316;2023-02-11T04:49:04;79.90;;;35.50;;
3625;SDS011;1827;50.534;8.316;2023-02-11T04:51:30;89.27;;;37.80;;
3625;SDS011;1827;50.534;8.316;2023-02-11T04:53:56;87.60;;;37.97;;
3625;SDS011;1827;50.534;8.316;2023-02-11T04:56:22;93.70;;;40.27;;
3625;SDS011;1827;50.534;8.316;2023-02-11T04:58:47;94.67;;;41.63;;
3625;SDS011;1827;50.534;8.316;2023-02-11T05:01:14;91.97;;;40.23;;
3625;SDS011;1827;50.534;8.316;2023-02-11T05:03:40;108.87;;;42.63;;
3625;SDS011;1827;50.534;8.316;2023-02-11T05:06:07;101.80;;;40.20;;
3625;SDS011;1827;50.534;8.316;2023-02-11T05:08:34;97.63;;;40.87;;
3625;SDS011;1827;50.534;8.316;2023-02-11T05:11:00;87.97;;;37.97;;
3625;SDS011;1827;50.534;8.316;2023-02-11T05:13:26;93.50;;;39.60;;
3625;SDS011;1827;50.534;8.316;2023-02-11T05:15:53;88.67;;;39.67;;
3625;SDS011;1827;50.534;8.316;2023-02-11T05:18:19;100.23;;;42.70;;
3625;SDS011;1827;50.534;8.316;2023-02-11T05:20:45;115.50;;;44.60;;
3625;SDS011;1827;50.534;8.316;2023-02-11T05:23:11;111.53;;;46.80;;
3625;SDS011;1827;50.534;8.316;2023-02-11T05:25:36;102.40;;;42.30;;
3625;SDS011;1827;50.534;8.316;2023-02-11T05:28:03;102.90;;;42.90;;
3625;SDS011;1827;50.534;8.316;2023-02-11T05:30:30;102.83;;;41.77;;
3625;SDS011;1827;50.534;8.316;2023-02-11T05:32:56;106.03;;;42.20;;
3625;SDS011;1827;50.534;8.316;2023-02-11T05:35:22;87.67;;;38.43;;
3625;SDS011;1827;50.534;8.316;2023-02-11T05:37:47;97.03;;;39.60;;
3625;SDS011;1827;50.534;8.316;2023-02-11T05:40:13;87.07;;;36.93;;
3625;SDS011;1827;50.534;8.316;2023-02-11T05:42:39;94.40;;;39.83;;
3625;SDS011;1827;50.534;8.316;2023-02-11T05:45:05;101.67;;;44.40;;
3625;SDS011;1827;50.534;8.316;2023-02-11T05:47:30;119.97;;;44.57;;
3625;SDS011;1827;50.534;8.316;2023-02-11T05:49:56;101.93;;;43.67;;
3625;SDS011;1827;50.534;8.316;2023-02-11T05:52:22;100.77;;;43.47;;
3625;SDS011;1827;50.534;8.316;2023-02-11T05:54:48;101.77;;;43.57;;
3625;SDS011;1827;50.534;8.316;2023-02-11T05:57:14;99.00;;;43.90;;
3625;SDS011;1827;50.534;8.316;2023-02-11T05:59:40;101.23;;;41.90;;
3625;SDS011;1827;50.534;8.316;2023-02-11T06:02:06;99.00;;;43.50;;
3625;SDS011;1827;50.534;8.316;2023-02-11T06:04:33;97.33;;;42.90;;
3625;SDS011;1827;50.534;8.316;2023-02-11T06:06:59;103.07;;;41.87;;
3625;SDS011;1827;50.534;8.316;2023-02-11T06:09:25;97.10;;;41.03;;
3625;SDS011;1827;50.534;8.316;2023-02-11T06:11:51;96.00;;;40.93;;
3625;SDS011;1827;50.534;8.316;2023-02-11T06:14:16;97.33;;;41.30;;
3625;SDS011;1827;50.534;8.316;2023-02-11T06:16:42;99.10;;;43.03;;
3625;SDS011;1827;50.534;8.316;2023-02-11T06:19:08;99.03;;;42.93;;
3625;SDS011;1827;50.534;8.316;2023-02-11T06:21:34;95.87;;;41.87;;
3625;SDS011;1827;50.534;8.316;2023-02-11T06:24:00;108.57;;;42.47;;
3625;SDS011;1827;50.534;8.316;2023-02-11T06:26:26;95.90;;;40.77;;
3625;SDS011;1827;50.534;8.316;2023-02-11T06:28:51;91.07;;;40.73;;
3625;SDS011;1827;50.534;8.316;2023-02-11T06:31:17;99.23;;;42.77;;
3625;SDS011;1827;50.534;8.316;2023-02-11T06:33:43;98.83;;;41.23;;
3625;SDS011;1827;50.534;8.316;2023-02-11T06:36:13;91.43;;;40.40;;
3625;SDS011;1827;50.534;8.316;2023-02-11T06:38:44;93.50;;;40.60;;
3625;SDS011;1827;50.534;8.316;2023-02-11T06:41:11;95.63;;;41.93;;
3625;SDS011;1827;50.534;8.316;2023-02-11T06:43:39;101.53;;;43.87;;
3625;SDS011;1827;50.534;8.316;2023-02-11T06:46:06;99.70;;;40.17;;
3625;SDS011;1827;50.534;8.316;2023-02-11T06:48:31;99.60;;;42.80;;
3625;SDS011;1827;50.534;8.316;2023-02-11T06:51:04;108.53;;;41.43;;
3625;SDS011;1827;50.534;8.316;2023-02-11T06:53:35;97.63;;;40.53;;
3625;SDS011;1827;50.534;8.316;2023-02-11T06:56:03;87.43;;;39.03;;
3625;SDS011;1827;50.534;8.316;2023-02-11T06:58:30;101.40;;;40.43;;
3625;SDS011;1827;50.534;8.316;2023-02-11T07:00:56;108.13;;;40.63;;
3625;SDS011;1827;50.534;8.316;2023-02-11T07:03:22;96.17;;;41.80;;
3625;SDS011;1827;50.534;8.316;2023-02-11T07:05:48;103.63;;;43.20;;
3625;SDS011;1827;50.534;8.316;2023-02-11T07:08:14;100.00;;;40.80;;
3625;SDS011;1827;50.534;8.316;2023-02-11T07:10:40;98.60;;;42.90;;
3625;SDS011;1827;50.534;8.316;2023-02-11T07:13:06;100.93;;;42.53;;
3625;SDS011;1827;50.534;8.316;2023-02-11T07:15:31;100.37;;;40.33;;
3625;SDS011;1827;50.534;8.316;2023-02-11T07:17:57;109.80;;;42.27;;
3625;SDS011;1827;50.534;8.316;2023-02-11T07:20:24;92.43;;;39.70;;
3625;SDS011;1827;50.534;8.316;2023-02-11T07:22:50;95.37;;;41.80;;
3625;SDS011;1827;50.534;8.316;2023-02-11T07:25:15;96.20;;;40.40;;
3625;SDS011;1827;50.534;8.316;2023-02-11T07:27:41;102.40;;;41.30;;
3625;SDS011;1827;50.534;8.316;2023-02-11T07:30:07;93.30;;;39.77;;
3625;SDS011;1827;50.534;8.316;2023-02-11T07:32:33;91.77;;;40.53;;
3625;SDS011;1827;50.534;8.316;2023-02-11T07:34:59;93.03;;;42.40;;
3625;SDS011;1827;50.534;8.316;2023-02-11T07:37:25;100.10;;;42.80;;
3625;SDS011;1827;50.534;8.316;2023-02-11T07:39:50;97.03;;;41.90;;
3625;SDS011;1827;50.534;8.316;2023-02-11T07:42:16;86.00;;;38.57;;
3625;SDS011;1827;50.534;8.316;2023-02-11T07:44:42;94.20;;;42.23;;
3625;SDS011;1827;50.534;8.316;2023-02-11T07:47:08;89.13;;;38.03;;
3625;SDS011;1827;50.534;8.316;2023-02-11T07:49:33;87.03;;;38.90;;
3625;SDS011;1827;50.534;8.316;2023-02-11T07:51:59;97.40;;;42.87;;
3625;SDS011;1827;50.534;8.316;2023-02-11T07:54:25;87.50;;;39.80;;
3625;SDS011;1827;50.534;8.316;2023-02-11T07:56:50;86.23;;;40.87;;
3625;SDS011;1827;50.534;8.316;2023-02-11T07:59:16;95.97;;;39.97;;
3625;SDS011;1827;50.534;8.316;2023-02-11T08:01:42;91.53;;;37.97;;
3625;SDS011;1827;50.534;8.316;2023-02-11T08:04:08;89.23;;;39.40;;
3625;SDS011;1827;50.534;8.316;2023-02-11T08:06:34;104.73;;;41.80;;
3625;SDS011;1827;50.534;8.316;2023-02-11T08:09:04;84.03;;;39.23;;
3625;SDS011;1827;50.534;8.316;2023-02-11T08:11:31;91.70;;;38.13;;
3625;SDS011;1827;50.534;8.316;2023-02-11T08:13:57;83.37;;;36.77;;
3625;SDS011;1827;50.534;8.316;2023-02-11T08:16:30;90.97;;;37.17;;
3625;SDS011;1827;50.534;8.316;2023-02-11T08:19:01;91.93;;;38.50;;
3625;SDS011;1827;50.534;8.316;2023-02-11T08:21:30;85.90;;;36.93;;
3625;SDS011;1827;50.534;8.316;2023-02-11T08:23:56;78.03;;;38.57;;
3625;SDS011;1827;50.534;8.316;2023-02-11T08:26:23;93.60;;;41.90;;
3625;SDS011;1827;50.534;8.316;2023-02-11T08:28:52;90.17;;;38.60;;
3625;SDS011;1827;50.534;8.316;2023-02-11T08:31:20;81.43;;;36.73;;
3625;SDS011;1827;50.534;8.316;2023-02-11T08:33:50;90.53;;;40.03;;
3625;SDS011;1827;50.534;8.316;2023-02-11T08:36:20;84.90;;;39.03;;
3625;SDS011;1827;50.534;8.316;2023-02-11T08:38:47;90.77;;;39.73;;
3625;SDS011;1827;50.534;8.316;2023-02-11T08:41:13;86.70;;;39.70;;
3625;SDS011;1827;50.534;8.316;2023-02-11T08:43:39;90.97;;;41.37;;
3625;SDS011;1827;50.534;8.316;2023-02-11T08:46:06;87.07;;;38.27;;
3625;SDS011;1827;50.534;8.316;2023-02-11T08:48:33;95.73;;;42.13;;
3625;SDS011;1827;50.534;8.316;2023-02-11T08:50:59;89.33;;;40.47;;
3625;SDS011;1827;50.534;8.316;2023-02-11T08:53:29;92.93;;;39.23;;
3625;SDS011;1827;50.534;8.316;2023-02-11T08:55:55;95.10;;;41.30;;
3625;SDS011;1827;50.534;8.316;2023-02-11T08:58:21;89.63;;;40.93;;
3625;SDS011;1827;50.534;8.316;2023-02-11T09:00:47;94.50;;;39.73;;
3625;SDS011;1827;50.534;8.316;2023-02-11T09:03:14;94.23;;;41.43;;
3625;SDS011;1827;50.534;8.316;2023-02-11T09:05:44;89.97;;;40.80;;
3625;SDS011;1827;50.534;8.316;2023-02-11T09:08:11;92.27;;;43.90;;
3625;SDS011;1827;50.534;8.316;2023-02-11T09:10:38;99.70;;;43.23;;
3625;SDS011;1827;50.534;8.316;2023-02-11T09:13:05;96.40;;;42.37;;
3625;SDS011;1827;50.534;8.316;2023-02-11T09:15:31;101.20;;;43.30;;
3625;SDS011;1827;50.534;8.316;2023-02-11T09:17:57;92.00;;;41.07;;
3625;SDS011;1827;50.534;8.316;2023-02-11T09:20:23;100.57;;;42.30;;
3625;SDS011;1827;50.534;8.316;2023-02-11T09:22:51;95.00;;;41.00;;
3625;SDS011;1827;50.534;8.316;2023-02-11T09:25:17;91.80;;;40.07;;
3625;SDS011;1827;50.534;8.316;2023-02-11T09:27:43;90.73;;;39.80;;
3625;SDS011;1827;50.534;8.316;2023-02-11T09:30:08;91.40;;;40.07;;
3625;SDS011;1827;50.534;8.316;2023-02-11T09:32:35;94.90;;;42.17;;
3625;SDS011;1827;50.534;8.316;2023-02-11T09:35:00;87.83;;;38.20;;
3625;SDS011;1827;50.534;8.316;2023-02-11T09:37:26;95.87;;;40.50;;
3625;SDS011;1827;50.534;8.316;2023-02-11T09:39:52;101.83;;;45.10;;
3625;SDS011;1827;50.534;8.316;2023-02-11T09:44:58;97.50;;;44.57;;
3625;SDS011;1827;50.534;8.316;2023-02-11T09:47:30;94.70;;;42.33;;
3625;SDS011;1827;50.534;8.316;2023-02-11T09:50:05;94.90;;;42.03;;
3625;SDS011;1827;50.534;8.316;2023-02-11T09:52:46;103.90;;;43.00;;
3625;SDS011;1827;50.534;8.316;2023-02-11T09:55:37;87.63;;;37.53;;
3625;SDS011;1827;50.534;8.316;2023-02-11T10:00:42;91.83;;;41.33;;
3625;SDS011;1827;50.534;8.316;2023-02-11T10:04:10;92.70;;;40.30;;
3625;SDS011;1827;50.534;8.316;2023-02-11T10:23:23;103.43;;;41.10;;
3625;SDS011;1827;50.534;8.316;2023-02-11T10:25:55;95.53;;;42.60;;
3625;SDS011;1827;50.534;8.316;2023-02-11T10:28:30;100.10;;;42.13;;
3625;SDS011;1827;50.534;8.316;2023-02-11T10:31:02;92.97;;;43.87;;
3625;SDS011;1827;50.534;8.316;2023-02-11T10:34:00;86.60;;;36.30;;
3625;SDS011;1827;50.534;8.316;2023-02-11T10:36:35;90.77;;;40.37;;
3625;SDS011;1827;50.534;8.316;2023-02-11T10:42:06;89.97;;;40.37;;
3625;SDS011;1827;50.534;8.316;2023-02-11T10:47:25;101.17;;;42.77;;
3625;SDS011;1827;50.534;8.316;2023-02-11T10:49:57;99.23;;;44.00;;
3625;SDS011;1827;50.534;8.316;2023-02-11T10:52:29;93.87;;;37.87;;
3625;SDS011;1827;50.534;8.316;2023-02-11T10:55:00;97.00;;;42.90;;
3625;SDS011;1827;50.534;8.316;2023-02-11T10:57:37;101.67;;;44.70;;
3625;SDS011;1827;50.534;8.316;2023-02-11T11:02:41;95.40;;;40.47;;
3625;SDS011;1827;50.534;8.316;2023-02-11T11:05:16;99.70;;;42.30;;
3625;SDS011;1827;50.534;8.316;2023-02-11T11:07:54;102.23;;;43.60;;
3625;SDS011;1827;50.534;8.316;2023-02-11T11:10:39;101.60;;;43.30;;
3625;SDS011;1827;50.534;8.316;2023-02-11T11:13:26;106.30;;;47.77;;
3625;SDS011;1827;50.534;8.316;2023-02-11T11:16:07;109.93;;;42.97;;
3625;SDS011;1827;50.534;8.316;2023-02-11T11:18:38;109.17;;;44.70;;
3625;SDS011;1827;50.534;8.316;2023-02-11T11:23:54;106.33;;;47.67;;
3625;SDS011;1827;50.534;8.316;2023-02-11T11:26:51;108.60;;;42.60;;
3625;SDS011;1827;50.534;8.316;2023-02-11T11:29:23;105.43;;;43.23;;
3625;SDS011;1827;50.534;8.316;2023-02-11T11:32:12;108.90;;;42.37;;
3625;SDS011;1827;50.534;8.316;2023-02-11T11:34:50;101.93;;;44.50;;
3625;SDS011;1827;50.534;8.316;2023-02-11T11:37:28;100.37;;;42.13;;
3625;SDS011;1827;50.534;8.316;2023-02-11T11:42:35;109.60;;;42.50;;
3625;SDS011;1827;50.534;8.316;2023-02-11T11:47:51;115.03;;;42.87;;
3625;SDS011;1827;50.534;8.316;2023-02-11T11:53:12;100.57;;;40.70;;
3625;SDS011;1827;50.534;8.316;2023-02-11T11:55:47;94.80;;;39.87;;
3625;SDS011;1827;50.534;8.316;2023-02-11T11:58:35;90.23;;;35.70;;
3625;SDS011;1827;50.534;8.316;2023-02-11T12:01:21;88.23;;;38.73;;
3625;SDS011;1827;50.534;8.316;2023-02-11T12:12:33;106.80;;;41.53;;
3625;SDS011;1827;50.534;8.316;2023-02-11T12:18:15;102.03;;;40.63;;
3625;SDS011;1827;50.534;8.316;2023-02-11T12:29:49;95.00;;;41.83;;
3625;SDS011;1827;50.534;8.316;2023-02-11T12:32:16;104.53;;;43.60;;
3625;SDS011;1827;50.534;8.316;2023-02-11T12:35:24;94.40;;;39.50;;
3625;SDS011;1827;50.534;8.316;2023-02-11T12:43:38;100.67;;;42.20;;
3625;SDS011;1827;50.534;8.316;2023-02-11T12:49:13;97.27;;;44.60;;
3625;SDS011;1827;50.534;8.316;2023-02-11T12:52:16;104.23;;;44.63;;
3625;SDS011;1827;50.534;8.316;2023-02-11T12:55:06;105.43;;;45.50;;
3625;SDS011;1827;50.534;8.316;2023-02-11T12:57:41;91.23;;;38.87;;
3625;SDS011;1827;50.534;8.316;2023-02-11T13:03:11;92.03;;;39.40;;
3625;SDS011;1827;50.534;8.316;2023-02-11T13:05:48;92.07;;;38.73;;
3625;SDS011;1827;50.534;8.316;2023-02-11T13:11:17;94.40;;;40.43;;
3625;SDS011;1827;50.534;8.316;2023-02-11T13:13:50;89.67;;;36.60;;
3625;SDS011;1827;50.534;8.316;2023-02-11T13:16:35;99.43;;;41.23;;
3625;SDS011;1827;50.534;8.316;2023-02-11T13:24:58;87.47;;;34.93;;
3625;SDS011;1827;50.534;8.316;2023-02-11T13:30:33;97.43;;;37.57;;
3625;SDS011;1827;50.534;8.316;2023-02-11T13:33:28;97.20;;;37.30;;
3625;SDS011;1827;50.534;8.316;2023-02-11T13:38:24;93.23;;;36.73;;
3625;SDS011;1827;50.534;8.316;2023-02-11T13:43:30;94.77;;;39.13;;
3625;SDS011;1827;50.534;8.316;2023-02-11T13:46:03;90.47;;;40.00;;
3625;SDS011;1827;50.534;8.316;2023-02-11T13:48:46;87.47;;;36.80;;
3625;SDS011;1827;50.534;8.316;2023-02-11T13:51:18;81.10;;;36.70;;
3625;SDS011;1827;50.534;8.316;2023-02-11T13:54:05;91.43;;;38.97;;
3625;SDS011;1827;50.534;8.316;2023-02-11T13:56:42;79.17;;;35.20;;
3625;SDS011;1827;50.534;8.316;2023-02-11T14:02:03;79.60;;;36.07;;
3625;SDS011;1827;50.534;8.316;2023-02-11T14:16:21;84.00;;;35.47;;
3625;SDS011;1827;50.534;8.316;2023-02-11T14:29:37;82.33;;;35.70;;
3625;SDS011;1827;50.534;8.316;2023-02-11T14:32:15;84.53;;;35.93;;
3625;SDS011;1827;50.534;8.316;2023-02-11T14:35:04;78.03;;;33.70;;
3625;SDS011;1827;50.534;8.316;2023-02-11T14:40:34;83.70;;;36.33;;
3625;SDS011;1827;50.534;8.316;2023-02-11T14:43:23;71.03;;;31.40;;
3625;SDS011;1827;50.534;8.316;2023-02-11T14:45:55;81.63;;;35.50;;
3625;SDS011;1827;50.534;8.316;2023-02-11T14:48:26;85.30;;;35.07;;
3625;SDS011;1827;50.534;8.316;2023-02-11T14:51:11;88.23;;;36.03;;
3625;SDS011;1827;50.534;8.316;2023-02-11T14:53:53;79.57;;;35.20;;
3625;SDS011;1827;50.534;8.316;2023-02-11T14:56:25;83.97;;;35.83;;
3625;SDS011;1827;50.534;8.316;2023-02-11T14:59:02;80.40;;;34.50;;
3625;SDS011;1827;50.534;8.316;2023-02-11T15:01:29;77.10;;;34.10;;
3625;SDS011;1827;50.534;8.316;2023-02-11T15:04:01;78.07;;;33.13;;
3625;SDS011;1827;50.534;8.316;2023-02-11T15:06:39;80.70;;;33.60;;
3625;SDS011;1827;50.534;8.316;2023-02-11T15:09:17;78.33;;;31.50;;
3625;SDS011;1827;50.534;8.316;2023-02-11T15:11:52;77.03;;;31.57;;
3625;SDS011;1827;50.534;8.316;2023-02-11T15:14:23;77.47;;;33.90;;
3625;SDS011;1827;50.534;8.316;2023-02-11T15:16:57;78.63;;;34.53;;
3625;SDS011;1827;50.534;8.316;2023-02-11T15:19:35;88.87;;;35.63;;
3625;SDS011;1827;50.534;8.316;2023-02-11T15:22:07;81.00;;;32.70;;
3625;SDS011;1827;50.534;8.316;2023-02-11T15:27:40;90.20;;;36.47;;
3625;SDS011;1827;50.534;8.316;2023-02-11T15:30:22;85.53;;;34.97;;
3625;SDS011;1827;50.534;8.316;2023-02-11T15:33:00;76.43;;;34.13;;
3625;SDS011;1827;50.534;8.316;2023-02-11T15:35:32;83.07;;;35.20;;
3625;SDS011;1827;50.534;8.316;2023-02-11T15:38:02;78.23;;;35.70;;
3625;SDS011;1827;50.534;8.316;2023-02-11T15:40:29;73.63;;;34.97;;
3625;SDS011;1827;50.534;8.316;2023-02-11T15:45:28;87.77;;;37.07;;
3625;SDS011;1827;50.534;8.316;2023-02-11T15:47:56;89.57;;;37.60;;
3625;SDS011;1827;50.534;8.316;2023-02-11T15:50:38;91.67;;;35.20;;
3625;SDS011;1827;50.534;8.316;2023-02-11T15:55:44;81.20;;;34.57;;
3625;SDS011;1827;50.534;8.316;2023-02-11T15:58:11;78.17;;;34.13;;
3625;SDS011;1827;50.534;8.316;2023-02-11T16:00:47;84.47;;;35.40;;
3625;SDS011;1827;50.534;8.316;2023-02-11T16:03:23;83.30;;;36.67;;
3625;SDS011;1827;50.534;8.316;2023-02-11T16:05:54;76.53;;;32.80;;
3625;SDS011;1827;50.534;8.316;2023-02-11T16:08:25;81.10;;;32.00;;
3625;SDS011;1827;50.534;8.316;2023-02-11T16:10:55;84.60;;;35.60;;
3625;SDS011;1827;50.534;8.316;2023-02-11T16:13:23;81.67;;;34.23;;
3625;SDS011;1827;50.534;8.316;2023-02-11T16:20:57;83.70;;;36.37;;
3625;SDS011;1827;50.534;8.316;2023-02-11T16:23:32;82.23;;;35.63;;
3625;SDS011;1827;50.534;8.316;2023-02-11T16:26:05;82.93;;;34.60;;
3625;SDS011;1827;50.534;8.316;2023-02-11T16:28:53;87.40;;;36.53;;
3625;SDS011;1827;50.534;8.316;2023-02-11T16:31:39;86.60;;;35.63;;
3625;SDS011;1827;50.534;8.316;2023-02-11T16:36:43;95.03;;;38.63;;
3625;SDS011;1827;50.534;8.316;2023-02-11T16:39:10;90.37;;;38.17;;
3625;SDS011;1827;50.534;8.316;2023-02-11T16:41:41;97.20;;;40.50;;
3625;SDS011;1827;50.534;8.316;2023-02-11T16:44:07;108.53;;;44.63;;
3625;SDS011;1827;50.534;8.316;2023-02-11T16:46:35;104.77;;;39.30;;
3625;SDS011;1827;50.534;8.316;2023-02-11T16:49:06;87.87;;;38.10;;
3625;SDS011;1827;50.534;8.316;2023-02-11T16:51:54;85.17;;;37.83;;
3625;SDS011;1827;50.534;8.316;2023-02-11T16:54:28;101.80;;;39.00;;
3625;SDS011;1827;50.534;8.316;2023-02-11T16:56:56;97.53;;;37.20;;
3625;SDS011;1827;50.534;8.316;2023-02-11T16:59:25;96.10;;;37.10;;
3625;SDS011;1827;50.534;8.316;2023-02-11T17:01:51;96.07;;;37.97;;
3625;SDS011;1827;50.534;8.316;2023-02-11T17:04:19;102.07;;;37.23;;
3625;SDS011;1827;50.534;8.316;2023-02-11T17:06:49;100.17;;;37.47;;
3625;SDS011;1827;50.534;8.316;2023-02-11T17:09:17;95.80;;;38.37;;
3625;SDS011;1827;50.534;8.316;2023-02-11T17:11:52;105.80;;;43.70;;
3625;SDS011;1827;50.534;8.316;2023-02-11T17:14:18;99.30;;;39.87;;
3625;SDS011;1827;50.534;8.316;2023-02-11T17:16:44;96.87;;;38.30;;
3625;SDS011;1827;50.534;8.316;2023-02-11T17:19:13;107.73;;;40.27;;
3625;SDS011;1827;50.534;8.316;2023-02-11T17:21:43;100.07;;;37.70;;
3625;SDS011;1827;50.534;8.316;2023-02-11T17:24:09;107.53;;;42.33;;
3625;SDS011;1827;50.534;8.316;2023-02-11T17:26:36;106.93;;;39.03;;
3625;SDS011;1827;50.534;8.316;2023-02-11T17:29:05;102.83;;;40.47;;
3625;SDS011;1827;50.534;8.316;2023-02-11T17:31:32;110.40;;;39.93;;
3625;SDS011;1827;50.534;8.316;2023-02-11T17:33:59;109.10;;;37.97;;
3625;SDS011;1827;50.534;8.316;2023-02-11T17:36:28;104.67;;;39.90;;
3625;SDS011;1827;50.534;8.316;2023-02-11T17:38:56;95.43;;;37.17;;
3625;SDS011;1827;50.534;8.316;2023-02-11T17:41:22;108.80;;;40.40;;
3625;SDS011;1827;50.534;8.316;2023-02-11T17:43:49;103.80;;;40.30;;
3625;SDS011;1827;50.534;8.316;2023-02-11T17:46:17;103.07;;;38.57;;